sensor_id;sensor_type;location;lat;lon;timestamp;P1;durP1;ratioP1;P2;durP2;ratioP2
61034;SDS011;46916;40.564;-7.958;2022-08-02T00:00:47;0.43;;;0.43;;
61034;SDS011;46916;40.564;-7.958;2022-08-02T00:02:47;1.65;;;1.45;;
61034;SDS011;46916;40.564;-7.958;2022-08-02T00:04:49;0.57;;;0.57;;
61034;SDS011;46916;40.564;-7.958;2022-08-02T00:06:49;3.13;;;1.25;;
61034;SDS011;46916;40.564;-7.958;2022-08-02T00:08:50;1.55;;;0.75;;
61034;SDS011;46916;40.564;-7.958;2022-08-02T00:10:52;1.75;;;0.82;;
61034;SDS011;46916;40.564;-7.958;2022-08-02T00:12:54;2.15;;;0.55;;
61034;SDS011;46916;40.564;-7.958;2022-08-02T00:14:54;0.73;;;0.50;;
61034;SDS011;46916;40.564;-7.958;2022-08-02T00:16:55;1.42;;;0.80;;
61034;SDS011;46916;40.564;-7.958;2022-08-02T00:18:56;1.67;;;1.23;;
61034;SDS011;46916;40.564;-7.958;2022-08-02T00:20:57;0.93;;;0.60;;
61034;SDS011;46916;40.564;-7.958;2022-08-02T00:22:58;2.13;;;1.00;;
61034;SDS011;46916;40.564;-7.958;2022-08-02T00:24:59;1.15;;;0.77;;
61034;SDS011;46916;40.564;-7.958;2022-08-02T00:26:59;0.52;;;0.40;;
61034;SDS011;46916;40.564;-7.958;2022-08-02T00:29:03;0.70;;;0.70;;
61034;SDS011;46916;40.564;-7.958;2022-08-02T00:31:04;1.67;;;0.73;;
61034;SDS011;46916;40.564;-7.958;2022-08-02T00:33:04;0.90;;;0.80;;
61034;SDS011;46916;40.564;-7.958;2022-08-02T00:35:07;0.55;;;0.55;;
61034;SDS011;46916;40.564;-7.958;2022-08-02T00:37:08;1.30;;;0.98;;
61034;SDS011;46916;40.564;-7.958;2022-08-02T00:39:09;1.27;;;1.02;;
61034;SDS011;46916;40.564;-7.958;2022-08-02T00:41:10;0.40;;;0.40;;
61034;SDS011;46916;40.564;-7.958;2022-08-02T00:43:12;0.75;;;0.60;;
61034;SDS011;46916;40.564;-7.958;2022-08-02T00:45:13;1.27;;;0.80;;
61034;SDS011;46916;40.564;-7.958;2022-08-02T00:47:14;1.27;;;0.70;;
61034;SDS011;46916;40.564;-7.958;2022-08-02T00:49:15;1.25;;;1.13;;
61034;SDS011;46916;40.564;-7.958;2022-08-02T00:51:15;0.85;;;0.60;;
61034;SDS011;46916;40.564;-7.958;2022-08-02T00:53:16;0.35;;;0.35;;
61034;SDS011;46916;40.564;-7.958;2022-08-02T00:55:17;1.20;;;1.05;;
61034;SDS011;46916;40.564;-7.958;2022-08-02T00:57:17;0.68;;;0.68;;
61034;SDS011;46916;40.564;-7.958;2022-08-02T00:59:18;1.67;;;0.82;;
61034;SDS011;46916;40.564;-7.958;2022-08-02T01:01:19;0.40;;;0.40;;
61034;SDS011;46916;40.564;-7.958;2022-08-02T01:03:19;1.08;;;0.65;;
61034;SDS011;46916;40.564;-7.958;2022-08-02T01:05:20;4.78;;;0.88;;
61034;SDS011;46916;40.564;-7.958;2022-08-02T01:07:21;0.65;;;0.52;;
61034;SDS011;46916;40.564;-7.958;2022-08-02T01:09:21;0.60;;;0.60;;
61034;SDS011;46916;40.564;-7.958;2022-08-02T01:11:22;0.60;;;0.60;;
61034;SDS011;46916;40.564;-7.958;2022-08-02T01:13:23;0.77;;;0.32;;
61034;SDS011;46916;40.564;-7.958;2022-08-02T01:15:24;0.93;;;0.70;;
61034;SDS011;46916;40.564;-7.958;2022-08-02T01:26:42;6.25;;;0.47;;
61034;SDS011;46916;40.564;-7.958;2022-08-02T01:28:54;1.08;;;0.95;;
61034;SDS011;46916;40.564;-7.958;2022-08-02T01:31:13;0.77;;;0.77;;
61034;SDS011;46916;40.564;-7.958;2022-08-02T01:33:19;1.48;;;1.38;;
61034;SDS011;46916;40.564;-7.958;2022-08-02T01:35:26;1.65;;;1.23;;
61034;SDS011;46916;40.564;-7.958;2022-08-02T01:39:39;1.75;;;1.65;;
61034;SDS011;46916;40.564;-7.958;2022-08-02T01:41:42;0.77;;;0.75;;
61034;SDS011;46916;40.564;-7.958;2022-08-02T01:43:44;1.27;;;0.70;;
61034;SDS011;46916;40.564;-7.958;2022-08-02T01:45:47;0.75;;;0.70;;
61034;SDS011;46916;40.564;-7.958;2022-08-02T01:47:48;1.27;;;0.80;;
61034;SDS011;46916;40.564;-7.958;2022-08-02T01:49:52;0.40;;;0.40;;
61034;SDS011;46916;40.564;-7.958;2022-08-02T01:51:57;1.85;;;1.33;;
61034;SDS011;46916;40.564;-7.958;2022-08-02T01:54:19;0.65;;;0.65;;
61034;SDS011;46916;40.564;-7.958;2022-08-02T01:56:24;0.80;;;0.52;;
61034;SDS011;46916;40.564;-7.958;2022-08-02T01:58:25;0.50;;;0.40;;
61034;SDS011;46916;40.564;-7.958;2022-08-02T02:00:31;1.83;;;1.70;;
61034;SDS011;46916;40.564;-7.958;2022-08-02T02:02:35;0.85;;;0.85;;
61034;SDS011;46916;40.564;-7.958;2022-08-02T02:04:37;0.98;;;0.65;;
61034;SDS011;46916;40.564;-7.958;2022-08-02T02:06:40;0.50;;;0.47;;
61034;SDS011;46916;40.564;-7.958;2022-08-02T02:08:44;1.77;;;1.67;;
61034;SDS011;46916;40.564;-7.958;2022-08-02T02:10:44;1.20;;;1.10;;
61034;SDS011;46916;40.564;-7.958;2022-08-02T02:12:47;0.32;;;0.30;;
61034;SDS011;46916;40.564;-7.958;2022-08-02T02:14:50;1.45;;;0.95;;
61034;SDS011;46916;40.564;-7.958;2022-08-02T02:16:53;0.55;;;0.45;;
61034;SDS011;46916;40.564;-7.958;2022-08-02T02:18:56;0.90;;;0.85;;
61034;SDS011;46916;40.564;-7.958;2022-08-02T02:21:00;0.40;;;0.40;;
61034;SDS011;46916;40.564;-7.958;2022-08-02T02:23:01;2.83;;;1.55;;
61034;SDS011;46916;40.564;-7.958;2022-08-02T02:25:02;2.10;;;0.93;;
61034;SDS011;46916;40.564;-7.958;2022-08-02T02:27:03;4.60;;;0.85;;
61034;SDS011;46916;40.564;-7.958;2022-08-02T02:29:08;1.55;;;1.02;;
61034;SDS011;46916;40.564;-7.958;2022-08-02T02:31:11;0.30;;;0.30;;
61034;SDS011;46916;40.564;-7.958;2022-08-02T02:33:18;1.15;;;0.50;;
61034;SDS011;46916;40.564;-7.958;2022-08-02T02:35:21;1.98;;;0.82;;
61034;SDS011;46916;40.564;-7.958;2022-08-02T02:37:26;0.60;;;0.50;;
61034;SDS011;46916;40.564;-7.958;2022-08-02T02:39:30;1.85;;;1.70;;
61034;SDS011;46916;40.564;-7.958;2022-08-02T02:41:32;0.73;;;0.73;;
61034;SDS011;46916;40.564;-7.958;2022-08-02T02:43:33;1.88;;;1.45;;
61034;SDS011;46916;40.564;-7.958;2022-08-02T02:45:37;6.82;;;1.27;;
61034;SDS011;46916;40.564;-7.958;2022-08-02T02:47:39;0.85;;;0.85;;
61034;SDS011;46916;40.564;-7.958;2022-08-02T02:49:41;7.65;;;4.18;;
61034;SDS011;46916;40.564;-7.958;2022-08-02T02:51:44;0.47;;;0.47;;
61034;SDS011;46916;40.564;-7.958;2022-08-02T02:53:45;1.65;;;0.88;;
61034;SDS011;46916;40.564;-7.958;2022-08-02T02:55:48;0.80;;;0.80;;
61034;SDS011;46916;40.564;-7.958;2022-08-02T02:57:50;4.20;;;0.98;;
61034;SDS011;46916;40.564;-7.958;2022-08-02T02:59:51;1.02;;;0.90;;
61034;SDS011;46916;40.564;-7.958;2022-08-02T03:01:53;1.13;;;0.88;;
61034;SDS011;46916;40.564;-7.958;2022-08-02T03:03:54;0.45;;;0.45;;
61034;SDS011;46916;40.564;-7.958;2022-08-02T03:06:04;0.50;;;0.50;;
61034;SDS011;46916;40.564;-7.958;2022-08-02T03:08:05;1.42;;;1.33;;
61034;SDS011;46916;40.564;-7.958;2022-08-02T03:10:06;1.48;;;0.73;;
61034;SDS011;46916;40.564;-7.958;2022-08-02T03:12:07;0.77;;;0.70;;
61034;SDS011;46916;40.564;-7.958;2022-08-02T03:14:10;2.67;;;1.23;;
61034;SDS011;46916;40.564;-7.958;2022-08-02T03:16:11;0.80;;;0.80;;
61034;SDS011;46916;40.564;-7.958;2022-08-02T03:18:28;0.40;;;0.40;;
61034;SDS011;46916;40.564;-7.958;2022-08-02T03:20:33;1.15;;;1.05;;
61034;SDS011;46916;40.564;-7.958;2022-08-02T03:22:34;2.15;;;1.50;;
61034;SDS011;46916;40.564;-7.958;2022-08-02T03:24:35;3.78;;;0.80;;
61034;SDS011;46916;40.564;-7.958;2022-08-02T03:26:36;4.38;;;2.72;;
61034;SDS011;46916;40.564;-7.958;2022-08-02T03:28:38;1.23;;;0.70;;
61034;SDS011;46916;40.564;-7.958;2022-08-02T03:30:39;1.77;;;1.65;;
61034;SDS011;46916;40.564;-7.958;2022-08-02T03:32:41;1.35;;;1.20;;
61034;SDS011;46916;40.564;-7.958;2022-08-02T03:34:44;1.15;;;0.95;;
61034;SDS011;46916;40.564;-7.958;2022-08-02T03:36:44;3.50;;;1.75;;
61034;SDS011;46916;40.564;-7.958;2022-08-02T03:38:50;9.13;;;1.30;;
61034;SDS011;46916;40.564;-7.958;2022-08-02T03:40:51;4.32;;;1.58;;
61034;SDS011;46916;40.564;-7.958;2022-08-02T03:42:53;2.90;;;1.77;;
61034;SDS011;46916;40.564;-7.958;2022-08-02T03:44:54;1.75;;;1.60;;
61034;SDS011;46916;40.564;-7.958;2022-08-02T03:46:56;1.48;;;1.17;;
61034;SDS011;46916;40.564;-7.958;2022-08-02T03:48:57;2.55;;;2.22;;
61034;SDS011;46916;40.564;-7.958;2022-08-02T03:50:59;1.58;;;1.23;;
61034;SDS011;46916;40.564;-7.958;2022-08-02T03:53:00;1.85;;;1.50;;
61034;SDS011;46916;40.564;-7.958;2022-08-02T03:55:01;3.80;;;1.33;;
61034;SDS011;46916;40.564;-7.958;2022-08-02T03:57:04;2.40;;;1.52;;
61034;SDS011;46916;40.564;-7.958;2022-08-02T03:59:11;1.75;;;1.58;;
61034;SDS011;46916;40.564;-7.958;2022-08-02T04:01:13;1.65;;;1.40;;
61034;SDS011;46916;40.564;-7.958;2022-08-02T04:03:14;1.38;;;0.75;;
61034;SDS011;46916;40.564;-7.958;2022-08-02T04:05:15;1.35;;;1.08;;
61034;SDS011;46916;40.564;-7.958;2022-08-02T04:07:16;1.08;;;1.02;;
61034;SDS011;46916;40.564;-7.958;2022-08-02T04:09:17;1.45;;;1.35;;
61034;SDS011;46916;40.564;-7.958;2022-08-02T04:11:18;1.75;;;1.40;;
61034;SDS011;46916;40.564;-7.958;2022-08-02T04:13:32;1.35;;;1.05;;
61034;SDS011;46916;40.564;-7.958;2022-08-02T04:15:34;5.82;;;2.55;;
61034;SDS011;46916;40.564;-7.958;2022-08-02T04:17:38;1.77;;;1.27;;
61034;SDS011;46916;40.564;-7.958;2022-08-02T04:19:45;2.08;;;1.48;;
61034;SDS011;46916;40.564;-7.958;2022-08-02T04:21:49;2.08;;;1.30;;
61034;SDS011;46916;40.564;-7.958;2022-08-02T04:23:52;1.83;;;1.38;;
61034;SDS011;46916;40.564;-7.958;2022-08-02T04:25:54;1.70;;;1.60;;
61034;SDS011;46916;40.564;-7.958;2022-08-02T04:27:57;2.53;;;1.40;;
61034;SDS011;46916;40.564;-7.958;2022-08-02T04:29:59;2.95;;;1.90;;
61034;SDS011;46916;40.564;-7.958;2022-08-02T04:32:01;2.92;;;2.42;;
61034;SDS011;46916;40.564;-7.958;2022-08-02T04:34:04;5.63;;;2.40;;
61034;SDS011;46916;40.564;-7.958;2022-08-02T04:36:05;7.53;;;2.42;;
61034;SDS011;46916;40.564;-7.958;2022-08-02T04:38:06;1.27;;;1.15;;
61034;SDS011;46916;40.564;-7.958;2022-08-02T04:40:11;1.52;;;1.23;;
61034;SDS011;46916;40.564;-7.958;2022-08-02T04:42:22;2.60;;;2.40;;
61034;SDS011;46916;40.564;-7.958;2022-08-02T04:44:23;2.67;;;1.45;;
61034;SDS011;46916;40.564;-7.958;2022-08-02T04:46:24;5.70;;;3.40;;
61034;SDS011;46916;40.564;-7.958;2022-08-02T04:48:25;2.67;;;1.83;;
61034;SDS011;46916;40.564;-7.958;2022-08-02T04:50:26;1.25;;;1.15;;
61034;SDS011;46916;40.564;-7.958;2022-08-02T04:52:27;2.05;;;1.67;;
61034;SDS011;46916;40.564;-7.958;2022-08-02T04:54:27;2.55;;;1.63;;
61034;SDS011;46916;40.564;-7.958;2022-08-02T04:56:28;2.88;;;2.10;;
61034;SDS011;46916;40.564;-7.958;2022-08-02T04:58:28;3.40;;;1.95;;
61034;SDS011;46916;40.564;-7.958;2022-08-02T05:00:29;1.83;;;1.65;;
61034;SDS011;46916;40.564;-7.958;2022-08-02T05:02:31;3.45;;;1.80;;
61034;SDS011;46916;40.564;-7.958;2022-08-02T05:04:32;1.38;;;1.17;;
61034;SDS011;46916;40.564;-7.958;2022-08-02T05:06:32;1.85;;;1.38;;
61034;SDS011;46916;40.564;-7.958;2022-08-02T05:08:33;3.40;;;2.75;;
61034;SDS011;46916;40.564;-7.958;2022-08-02T05:10:34;2.63;;;1.65;;
61034;SDS011;46916;40.564;-7.958;2022-08-02T05:12:36;1.83;;;1.67;;
61034;SDS011;46916;40.564;-7.958;2022-08-02T05:14:37;1.77;;;1.63;;
61034;SDS011;46916;40.564;-7.958;2022-08-02T05:16:38;3.03;;;2.10;;
61034;SDS011;46916;40.564;-7.958;2022-08-02T05:18:39;1.55;;;1.25;;
61034;SDS011;46916;40.564;-7.958;2022-08-02T05:20:39;2.83;;;1.58;;
61034;SDS011;46916;40.564;-7.958;2022-08-02T05:22:40;5.75;;;2.53;;
61034;SDS011;46916;40.564;-7.958;2022-08-02T05:24:41;1.42;;;1.00;;
61034;SDS011;46916;40.564;-7.958;2022-08-02T05:26:42;1.45;;;1.27;;
61034;SDS011;46916;40.564;-7.958;2022-08-02T05:28:43;1.35;;;1.25;;
61034;SDS011;46916;40.564;-7.958;2022-08-02T05:30:43;11.13;;;2.03;;
61034;SDS011;46916;40.564;-7.958;2022-08-02T05:32:45;13.35;;;1.25;;
61034;SDS011;46916;40.564;-7.958;2022-08-02T05:36:48;1.15;;;1.08;;
61034;SDS011;46916;40.564;-7.958;2022-08-02T05:38:49;2.10;;;1.02;;
61034;SDS011;46916;40.564;-7.958;2022-08-02T05:40:50;1.48;;;1.20;;
61034;SDS011;46916;40.564;-7.958;2022-08-02T05:42:50;2.42;;;1.35;;
61034;SDS011;46916;40.564;-7.958;2022-08-02T05:44:51;1.58;;;1.05;;
61034;SDS011;46916;40.564;-7.958;2022-08-02T05:46:52;3.95;;;2.65;;
61034;SDS011;46916;40.564;-7.958;2022-08-02T05:48:52;3.28;;;2.15;;
61034;SDS011;46916;40.564;-7.958;2022-08-02T05:50:54;1.80;;;1.30;;
61034;SDS011;46916;40.564;-7.958;2022-08-02T05:53:02;3.15;;;1.23;;
61034;SDS011;46916;40.564;-7.958;2022-08-02T05:55:15;2.58;;;1.58;;
61034;SDS011;46916;40.564;-7.958;2022-08-02T05:57:39;2.75;;;1.55;;
61034;SDS011;46916;40.564;-7.958;2022-08-02T06:02:07;1.40;;;0.95;;
61034;SDS011;46916;40.564;-7.958;2022-08-02T06:04:24;3.25;;;1.25;;
61034;SDS011;46916;40.564;-7.958;2022-08-02T06:06:31;1.95;;;0.88;;
61034;SDS011;46916;40.564;-7.958;2022-08-02T06:08:37;2.53;;;1.77;;
61034;SDS011;46916;40.564;-7.958;2022-08-02T06:10:40;1.92;;;1.70;;
61034;SDS011;46916;40.564;-7.958;2022-08-02T06:15:03;2.50;;;1.35;;
61034;SDS011;46916;40.564;-7.958;2022-08-02T06:17:04;2.05;;;1.85;;
61034;SDS011;46916;40.564;-7.958;2022-08-02T06:19:04;3.13;;;1.67;;
61034;SDS011;46916;40.564;-7.958;2022-08-02T06:21:06;4.43;;;1.13;;
61034;SDS011;46916;40.564;-7.958;2022-08-02T06:23:08;1.20;;;1.10;;
61034;SDS011;46916;40.564;-7.958;2022-08-02T06:25:12;2.22;;;1.80;;
61034;SDS011;46916;40.564;-7.958;2022-08-02T06:27:13;2.78;;;1.90;;
61034;SDS011;46916;40.564;-7.958;2022-08-02T06:29:14;6.07;;;2.03;;
61034;SDS011;46916;40.564;-7.958;2022-08-02T06:31:15;1.50;;;1.40;;
61034;SDS011;46916;40.564;-7.958;2022-08-02T06:33:16;3.53;;;2.95;;
61034;SDS011;46916;40.564;-7.958;2022-08-02T06:35:16;2.05;;;1.80;;
61034;SDS011;46916;40.564;-7.958;2022-08-02T06:39:42;7.72;;;2.50;;
61034;SDS011;46916;40.564;-7.958;2022-08-02T06:41:45;5.45;;;2.63;;
61034;SDS011;46916;40.564;-7.958;2022-08-02T06:43:59;3.75;;;2.92;;
61034;SDS011;46916;40.564;-7.958;2022-08-02T06:46:01;6.05;;;2.47;;
61034;SDS011;46916;40.564;-7.958;2022-08-02T06:48:02;2.95;;;2.13;;
61034;SDS011;46916;40.564;-7.958;2022-08-02T06:50:04;5.65;;;2.25;;
61034;SDS011;46916;40.564;-7.958;2022-08-02T06:52:04;2.00;;;1.63;;
61034;SDS011;46916;40.564;-7.958;2022-08-02T06:54:05;4.45;;;1.95;;
61034;SDS011;46916;40.564;-7.958;2022-08-02T06:56:07;1.20;;;1.08;;
61034;SDS011;46916;40.564;-7.958;2022-08-02T06:58:07;4.22;;;1.90;;
61034;SDS011;46916;40.564;-7.958;2022-08-02T07:00:08;9.07;;;3.38;;
61034;SDS011;46916;40.564;-7.958;2022-08-02T07:02:09;1.88;;;1.42;;
61034;SDS011;46916;40.564;-7.958;2022-08-02T07:04:10;5.97;;;2.50;;
61034;SDS011;46916;40.564;-7.958;2022-08-02T07:06:11;2.05;;;1.70;;
61034;SDS011;46916;40.564;-7.958;2022-08-02T07:08:15;1.40;;;1.15;;
61034;SDS011;46916;40.564;-7.958;2022-08-02T07:10:17;8.38;;;2.00;;
61034;SDS011;46916;40.564;-7.958;2022-08-02T07:12:17;3.20;;;2.13;;
61034;SDS011;46916;40.564;-7.958;2022-08-02T07:14:19;1.48;;;1.17;;
61034;SDS011;46916;40.564;-7.958;2022-08-02T07:16:19;4.85;;;1.70;;
61034;SDS011;46916;40.564;-7.958;2022-08-02T07:18:21;4.00;;;2.30;;
61034;SDS011;46916;40.564;-7.958;2022-08-02T07:20:23;2.63;;;1.85;;
61034;SDS011;46916;40.564;-7.958;2022-08-02T07:22:24;2.75;;;1.20;;
61034;SDS011;46916;40.564;-7.958;2022-08-02T07:24:26;2.22;;;1.65;;
61034;SDS011;46916;40.564;-7.958;2022-08-02T07:26:26;4.18;;;2.45;;
61034;SDS011;46916;40.564;-7.958;2022-08-02T07:28:27;4.57;;;2.63;;
61034;SDS011;46916;40.564;-7.958;2022-08-02T07:30:28;1.95;;;1.27;;
61034;SDS011;46916;40.564;-7.958;2022-08-02T07:32:31;1.00;;;0.82;;
61034;SDS011;46916;40.564;-7.958;2022-08-02T07:34:32;3.80;;;2.33;;
61034;SDS011;46916;40.564;-7.958;2022-08-02T07:36:32;3.17;;;1.58;;
61034;SDS011;46916;40.564;-7.958;2022-08-02T07:38:33;1.98;;;1.27;;
61034;SDS011;46916;40.564;-7.958;2022-08-02T07:40:34;5.43;;;2.35;;
61034;SDS011;46916;40.564;-7.958;2022-08-02T07:42:35;1.52;;;1.20;;
61034;SDS011;46916;40.564;-7.958;2022-08-02T07:44:35;4.18;;;2.55;;
61034;SDS011;46916;40.564;-7.958;2022-08-02T07:46:36;1.80;;;1.25;;
61034;SDS011;46916;40.564;-7.958;2022-08-02T07:48:37;2.22;;;1.33;;
61034;SDS011;46916;40.564;-7.958;2022-08-02T07:50:38;0.82;;;0.82;;
61034;SDS011;46916;40.564;-7.958;2022-08-02T07:52:39;1.23;;;0.90;;
61034;SDS011;46916;40.564;-7.958;2022-08-02T07:54:41;1.48;;;1.30;;
61034;SDS011;46916;40.564;-7.958;2022-08-02T07:56:41;7.05;;;1.95;;
61034;SDS011;46916;40.564;-7.958;2022-08-02T07:58:42;2.72;;;1.67;;
61034;SDS011;46916;40.564;-7.958;2022-08-02T08:00:43;2.33;;;1.33;;
61034;SDS011;46916;40.564;-7.958;2022-08-02T08:02:44;5.95;;;2.63;;
61034;SDS011;46916;40.564;-7.958;2022-08-02T08:04:45;4.75;;;2.40;;
61034;SDS011;46916;40.564;-7.958;2022-08-02T08:06:46;2.95;;;1.92;;
61034;SDS011;46916;40.564;-7.958;2022-08-02T08:08:54;3.10;;;2.05;;
61034;SDS011;46916;40.564;-7.958;2022-08-02T08:10:54;4.88;;;2.97;;
61034;SDS011;46916;40.564;-7.958;2022-08-02T08:12:55;4.38;;;2.67;;
61034;SDS011;46916;40.564;-7.958;2022-08-02T08:14:56;4.53;;;2.05;;
61034;SDS011;46916;40.564;-7.958;2022-08-02T08:16:56;3.15;;;1.40;;
61034;SDS011;46916;40.564;-7.958;2022-08-02T08:18:57;5.28;;;1.42;;
61034;SDS011;46916;40.564;-7.958;2022-08-02T08:20:58;2.45;;;2.05;;
61034;SDS011;46916;40.564;-7.958;2022-08-02T08:22:59;2.25;;;1.80;;
61034;SDS011;46916;40.564;-7.958;2022-08-02T08:25:00;4.00;;;2.80;;
61034;SDS011;46916;40.564;-7.958;2022-08-02T08:27:02;3.35;;;1.65;;
61034;SDS011;46916;40.564;-7.958;2022-08-02T08:29:05;4.10;;;2.22;;
61034;SDS011;46916;40.564;-7.958;2022-08-02T08:31:06;2.60;;;2.38;;
61034;SDS011;46916;40.564;-7.958;2022-08-02T08:33:07;2.65;;;1.73;;
61034;SDS011;46916;40.564;-7.958;2022-08-02T08:35:08;2.88;;;2.28;;
61034;SDS011;46916;40.564;-7.958;2022-08-02T08:37:08;4.65;;;2.10;;
61034;SDS011;46916;40.564;-7.958;2022-08-02T08:39:09;4.00;;;1.92;;
61034;SDS011;46916;40.564;-7.958;2022-08-02T08:41:10;4.72;;;2.40;;
61034;SDS011;46916;40.564;-7.958;2022-08-02T08:43:11;4.43;;;3.05;;
61034;SDS011;46916;40.564;-7.958;2022-08-02T08:45:13;11.70;;;3.38;;
61034;SDS011;46916;40.564;-7.958;2022-08-02T08:47:13;3.33;;;2.25;;
61034;SDS011;46916;40.564;-7.958;2022-08-02T08:49:17;1.92;;;1.52;;
61034;SDS011;46916;40.564;-7.958;2022-08-02T08:51:26;3.78;;;2.72;;
61034;SDS011;46916;40.564;-7.958;2022-08-02T08:53:30;2.22;;;1.63;;
61034;SDS011;46916;40.564;-7.958;2022-08-02T08:55:32;2.38;;;1.55;;
61034;SDS011;46916;40.564;-7.958;2022-08-02T08:57:36;4.03;;;2.55;;
61034;SDS011;46916;40.564;-7.958;2022-08-02T08:59:41;1.60;;;1.35;;
61034;SDS011;46916;40.564;-7.958;2022-08-02T09:01:43;2.40;;;1.63;;
61034;SDS011;46916;40.564;-7.958;2022-08-02T09:03:45;3.42;;;2.50;;
61034;SDS011;46916;40.564;-7.958;2022-08-02T09:05:46;14.68;;;2.58;;
61034;SDS011;46916;40.564;-7.958;2022-08-02T09:07:47;4.50;;;2.08;;
61034;SDS011;46916;40.564;-7.958;2022-08-02T09:09:49;4.10;;;1.90;;
61034;SDS011;46916;40.564;-7.958;2022-08-02T09:11:50;4.97;;;3.28;;
61034;SDS011;46916;40.564;-7.958;2022-08-02T09:13:57;3.53;;;2.78;;
61034;SDS011;46916;40.564;-7.958;2022-08-02T09:16:00;2.50;;;1.40;;
61034;SDS011;46916;40.564;-7.958;2022-08-02T09:20:05;2.55;;;2.17;;
61034;SDS011;46916;40.564;-7.958;2022-08-02T09:24:20;1.63;;;1.52;;
61034;SDS011;46916;40.564;-7.958;2022-08-02T09:26:22;3.20;;;2.75;;
61034;SDS011;46916;40.564;-7.958;2022-08-02T09:28:27;1.55;;;1.45;;
61034;SDS011;46916;40.564;-7.958;2022-08-02T09:30:29;4.32;;;2.83;;
61034;SDS011;46916;40.564;-7.958;2022-08-02T09:32:32;2.22;;;2.00;;
61034;SDS011;46916;40.564;-7.958;2022-08-02T09:36:48;3.88;;;3.22;;
61034;SDS011;46916;40.564;-7.958;2022-08-02T09:38:57;15.85;;;6.88;;
61034;SDS011;46916;40.564;-7.958;2022-08-02T09:41:01;3.42;;;2.03;;
61034;SDS011;46916;40.564;-7.958;2022-08-02T09:43:03;2.92;;;2.33;;
61034;SDS011;46916;40.564;-7.958;2022-08-02T09:45:04;5.38;;;2.90;;
61034;SDS011;46916;40.564;-7.958;2022-08-02T09:47:13;7.03;;;2.53;;
61034;SDS011;46916;40.564;-7.958;2022-08-02T09:49:16;6.18;;;2.60;;
61034;SDS011;46916;40.564;-7.958;2022-08-02T09:51:19;4.13;;;2.58;;
61034;SDS011;46916;40.564;-7.958;2022-08-02T09:53:39;8.73;;;5.20;;
61034;SDS011;46916;40.564;-7.958;2022-08-02T09:55:40;5.32;;;3.60;;
61034;SDS011;46916;40.564;-7.958;2022-08-02T09:57:41;5.82;;;3.10;;
61034;SDS011;46916;40.564;-7.958;2022-08-02T09:59:51;4.13;;;2.40;;
61034;SDS011;46916;40.564;-7.958;2022-08-02T10:01:55;6.63;;;4.53;;
61034;SDS011;46916;40.564;-7.958;2022-08-02T10:03:58;2.97;;;2.47;;
61034;SDS011;46916;40.564;-7.958;2022-08-02T10:06:01;4.40;;;3.03;;
61034;SDS011;46916;40.564;-7.958;2022-08-02T10:08:03;10.05;;;4.38;;
61034;SDS011;46916;40.564;-7.958;2022-08-02T10:10:04;4.85;;;3.03;;
61034;SDS011;46916;40.564;-7.958;2022-08-02T10:12:05;10.30;;;4.10;;
61034;SDS011;46916;40.564;-7.958;2022-08-02T10:14:07;6.22;;;4.35;;
61034;SDS011;46916;40.564;-7.958;2022-08-02T10:16:09;6.13;;;5.00;;
61034;SDS011;46916;40.564;-7.958;2022-08-02T10:18:10;6.50;;;3.42;;
61034;SDS011;46916;40.564;-7.958;2022-08-02T10:20:11;4.50;;;3.10;;
61034;SDS011;46916;40.564;-7.958;2022-08-02T10:22:12;17.80;;;3.85;;
61034;SDS011;46916;40.564;-7.958;2022-08-02T10:24:15;5.03;;;3.80;;
61034;SDS011;46916;40.564;-7.958;2022-08-02T10:26:18;4.13;;;2.80;;
61034;SDS011;46916;40.564;-7.958;2022-08-02T10:28:26;4.90;;;3.30;;
61034;SDS011;46916;40.564;-7.958;2022-08-02T10:30:38;15.43;;;3.05;;
61034;SDS011;46916;40.564;-7.958;2022-08-02T10:32:42;6.20;;;3.83;;
61034;SDS011;46916;40.564;-7.958;2022-08-02T10:36:47;6.18;;;2.78;;
61034;SDS011;46916;40.564;-7.958;2022-08-02T10:38:50;3.57;;;2.40;;
61034;SDS011;46916;40.564;-7.958;2022-08-02T10:40:51;6.28;;;3.58;;
61034;SDS011;46916;40.564;-7.958;2022-08-02T10:42:54;2.78;;;2.30;;
61034;SDS011;46916;40.564;-7.958;2022-08-02T10:45:11;2.35;;;2.08;;
61034;SDS011;46916;40.564;-7.958;2022-08-02T10:47:21;4.38;;;3.08;;
61034;SDS011;46916;40.564;-7.958;2022-08-02T10:49:25;3.67;;;2.42;;
61034;SDS011;46916;40.564;-7.958;2022-08-02T10:54:17;6.43;;;2.47;;
61034;SDS011;46916;40.564;-7.958;2022-08-02T10:56:20;4.35;;;2.40;;
61034;SDS011;46916;40.564;-7.958;2022-08-02T10:58:49;3.10;;;1.63;;
61034;SDS011;46916;40.564;-7.958;2022-08-02T11:01:30;4.05;;;2.65;;
61034;SDS011;46916;40.564;-7.958;2022-08-02T11:03:39;3.97;;;2.00;;
61034;SDS011;46916;40.564;-7.958;2022-08-02T11:05:40;3.42;;;1.75;;
61034;SDS011;46916;40.564;-7.958;2022-08-02T11:07:48;6.47;;;2.25;;
61034;SDS011;46916;40.564;-7.958;2022-08-02T11:09:49;2.03;;;1.80;;
61034;SDS011;46916;40.564;-7.958;2022-08-02T11:14:03;1.65;;;1.23;;
61034;SDS011;46916;40.564;-7.958;2022-08-02T11:16:07;2.00;;;1.83;;
61034;SDS011;46916;40.564;-7.958;2022-08-02T11:18:08;2.10;;;1.15;;
61034;SDS011;46916;40.564;-7.958;2022-08-02T11:22:10;0.95;;;0.82;;
61034;SDS011;46916;40.564;-7.958;2022-08-02T11:24:31;0.95;;;0.80;;
61034;SDS011;46916;40.564;-7.958;2022-08-02T11:28:33;1.63;;;1.40;;
61034;SDS011;46916;40.564;-7.958;2022-08-02T11:30:34;4.15;;;1.30;;
61034;SDS011;46916;40.564;-7.958;2022-08-02T11:32:35;4.65;;;2.35;;
61034;SDS011;46916;40.564;-7.958;2022-08-02T11:34:37;1.73;;;1.08;;
61034;SDS011;46916;40.564;-7.958;2022-08-02T11:36:46;0.75;;;0.70;;
61034;SDS011;46916;40.564;-7.958;2022-08-02T11:38:47;2.28;;;1.20;;
61034;SDS011;46916;40.564;-7.958;2022-08-02T11:40:48;3.03;;;1.77;;
61034;SDS011;46916;40.564;-7.958;2022-08-02T11:42:49;1.10;;;1.00;;
61034;SDS011;46916;40.564;-7.958;2022-08-02T11:44:50;0.93;;;0.80;;
61034;SDS011;46916;40.564;-7.958;2022-08-02T11:46:59;2.85;;;0.80;;
61034;SDS011;46916;40.564;-7.958;2022-08-02T11:49:11;1.42;;;1.05;;
61034;SDS011;46916;40.564;-7.958;2022-08-02T11:51:14;1.45;;;0.88;;
61034;SDS011;46916;40.564;-7.958;2022-08-02T11:53:16;1.70;;;0.95;;
61034;SDS011;46916;40.564;-7.958;2022-08-02T11:55:17;1.38;;;0.90;;
61034;SDS011;46916;40.564;-7.958;2022-08-02T11:57:20;1.77;;;1.08;;
61034;SDS011;46916;40.564;-7.958;2022-08-02T11:59:21;1.17;;;1.08;;
61034;SDS011;46916;40.564;-7.958;2022-08-02T12:01:26;1.15;;;0.60;;
61034;SDS011;46916;40.564;-7.958;2022-08-02T12:03:27;2.47;;;1.98;;
61034;SDS011;46916;40.564;-7.958;2022-08-02T12:05:32;1.10;;;1.00;;
61034;SDS011;46916;40.564;-7.958;2022-08-02T12:07:37;0.65;;;0.60;;
61034;SDS011;46916;40.564;-7.958;2022-08-02T12:09:38;4.45;;;1.85;;
61034;SDS011;46916;40.564;-7.958;2022-08-02T12:11:39;1.15;;;0.93;;
61034;SDS011;46916;40.564;-7.958;2022-08-02T12:15:44;1.30;;;1.13;;
61034;SDS011;46916;40.564;-7.958;2022-08-02T12:17:46;1.80;;;1.25;;
61034;SDS011;46916;40.564;-7.958;2022-08-02T12:20:05;1.25;;;0.73;;
61034;SDS011;46916;40.564;-7.958;2022-08-02T12:22:07;0.70;;;0.50;;
61034;SDS011;46916;40.564;-7.958;2022-08-02T12:24:26;0.43;;;0.43;;
61034;SDS011;46916;40.564;-7.958;2022-08-02T12:26:28;0.40;;;0.38;;
61034;SDS011;46916;40.564;-7.958;2022-08-02T12:28:31;1.15;;;0.90;;
61034;SDS011;46916;40.564;-7.958;2022-08-02T12:30:46;0.45;;;0.43;;
61034;SDS011;46916;40.564;-7.958;2022-08-02T12:33:06;0.50;;;0.50;;
61034;SDS011;46916;40.564;-7.958;2022-08-02T12:35:12;0.22;;;0.22;;
61034;SDS011;46916;40.564;-7.958;2022-08-02T12:37:24;0.93;;;0.93;;
61034;SDS011;46916;40.564;-7.958;2022-08-02T12:41:45;1.58;;;0.85;;
61034;SDS011;46916;40.564;-7.958;2022-08-02T12:43:45;0.77;;;0.47;;
61034;SDS011;46916;40.564;-7.958;2022-08-02T12:45:50;0.77;;;0.63;;
61034;SDS011;46916;40.564;-7.958;2022-08-02T12:47:55;0.52;;;0.50;;
61034;SDS011;46916;40.564;-7.958;2022-08-02T12:50:15;0.80;;;0.73;;
61034;SDS011;46916;40.564;-7.958;2022-08-02T12:52:21;1.70;;;1.10;;